sensor_id;sensor_type;location;lat;lon;timestamp;temperature;humidity
25983;DHT22;13773;48.868;10.730;2023-02-01T00:00:31;1.70;99.90
25983;DHT22;13773;48.868;10.730;2023-02-01T00:02:58;1.70;99.90
25983;DHT22;13773;48.868;10.730;2023-02-01T00:05:24;1.70;99.90
25983;DHT22;13773;48.868;10.730;2023-02-01T00:07:50;1.70;99.90
25983;DHT22;13773;48.868;10.730;2023-02-01T00:10:15;1.70;99.90
25983;DHT22;13773;48.868;10.730;2023-02-01T00:12:41;1.70;99.90
25983;DHT22;13773;48.868;10.730;2023-02-01T00:15:07;1.80;99.90
25983;DHT22;13773;48.868;10.730;2023-02-01T00:17:33;1.70;99.90
25983;DHT22;13773;48.868;10.730;2023-02-01T00:19:59;1.70;99.90
25983;DHT22;13773;48.868;10.730;2023-02-01T00:22:24;1.60;99.90
25983;DHT22;13773;48.868;10.730;2023-02-01T00:24:50;1.70;99.90
25983;DHT22;13773;48.868;10.730;2023-02-01T00:27:17;1.60;99.90
25983;DHT22;13773;48.868;10.730;2023-02-01T00:29:45;1.60;99.90
25983;DHT22;13773;48.868;10.730;2023-02-01T00:32:11;1.70;99.90
25983;DHT22;13773;48.868;10.730;2023-02-01T00:34:37;1.70;99.90
25983;DHT22;13773;48.868;10.730;2023-02-01T00:37:02;1.80;99.90
25983;DHT22;13773;48.868;10.730;2023-02-01T00:39:28;1.60;99.90
25983;DHT22;13773;48.868;10.730;2023-02-01T00:41:54;1.80;99.90
25983;DHT22;13773;48.868;10.730;2023-02-01T00:44:19;1.70;99.90
25983;DHT22;13773;48.868;10.730;2023-02-01T00:46:45;1.60;99.90
25983;DHT22;13773;48.868;10.730;2023-02-01T00:49:11;1.60;99.90
25983;DHT22;13773;48.868;10.730;2023-02-01T00:51:36;1.60;99.90
25983;DHT22;13773;48.868;10.730;2023-02-01T00:54:02;1.60;99.90
25983;DHT22;13773;48.868;10.730;2023-02-01T00:56:28;1.60;99.90
25983;DHT22;13773;48.868;10.730;2023-02-01T00:58:54;1.70;99.90
25983;DHT22;13773;48.868;10.730;2023-02-01T01:01:22;1.60;99.90
25983;DHT22;13773;48.868;10.730;2023-02-01T01:03:51;1.70;99.90
25983;DHT22;13773;48.868;10.730;2023-02-01T01:06:20;1.70;99.90
25983;DHT22;13773;48.868;10.730;2023-02-01T01:08:47;1.80;99.90
25983;DHT22;13773;48.868;10.730;2023-02-01T01:11:19;1.80;99.90
25983;DHT22;13773;48.868;10.730;2023-02-01T01:13:47;1.80;99.90
25983;DHT22;13773;48.868;10.730;2023-02-01T01:16:13;1.80;99.90
25983;DHT22;13773;48.868;10.730;2023-02-01T01:18:39;2.30;99.90
25983;DHT22;13773;48.868;10.730;2023-02-01T01:21:07;2.00;99.90
25983;DHT22;13773;48.868;10.730;2023-02-01T01:23:33;1.80;99.90
25983;DHT22;13773;48.868;10.730;2023-02-01T01:25:59;1.90;99.90
25983;DHT22;13773;48.868;10.730;2023-02-01T01:28:25;1.90;99.90
25983;DHT22;13773;48.868;10.730;2023-02-01T01:30:50;1.90;99.90
25983;DHT22;13773;48.868;10.730;2023-02-01T01:33:16;1.90;99.90
25983;DHT22;13773;48.868;10.730;2023-02-01T01:35:42;2.00;99.90
25983;DHT22;13773;48.868;10.730;2023-02-01T01:38:09;1.90;99.90
25983;DHT22;13773;48.868;10.730;2023-02-01T01:40:35;2.40;99.90
25983;DHT22;13773;48.868;10.730;2023-02-01T01:43:01;1.90;99.90
25983;DHT22;13773;48.868;10.730;2023-02-01T01:45:27;1.90;99.90
25983;DHT22;13773;48.868;10.730;2023-02-01T01:47:57;2.10;99.90
25983;DHT22;13773;48.868;10.730;2023-02-01T01:50:39;1.90;99.90
25983;DHT22;13773;48.868;10.730;2023-02-01T01:53:06;1.90;99.90
25983;DHT22;13773;48.868;10.730;2023-02-01T01:55:37;2.00;99.90
25983;DHT22;13773;48.868;10.730;2023-02-01T01:58:07;2.00;99.90
25983;DHT22;13773;48.868;10.730;2023-02-01T02:00:34;2.00;99.90
25983;DHT22;13773;48.868;10.730;2023-02-01T02:03:12;2.00;99.90
25983;DHT22;13773;48.868;10.730;2023-02-01T02:05:39;2.00;99.90
25983;DHT22;13773;48.868;10.730;2023-02-01T02:08:05;2.40;99.90
25983;DHT22;13773;48.868;10.730;2023-02-01T02:10:31;2.00;99.90
25983;DHT22;13773;48.868;10.730;2023-02-01T02:13:16;2.10;99.90
25983;DHT22;13773;48.868;10.730;2023-02-01T02:15:57;2.20;99.90
25983;DHT22;13773;48.868;10.730;2023-02-01T02:23:51;2.50;99.90
25983;DHT22;13773;48.868;10.730;2023-02-01T02:37:40;2.60;99.90
25983;DHT22;13773;48.868;10.730;2023-02-01T02:40:27;2.60;99.90
25983;DHT22;13773;48.868;10.730;2023-02-01T02:46:25;2.60;99.90
25983;DHT22;13773;48.868;10.730;2023-02-01T02:49:23;2.60;99.90
25983;DHT22;13773;48.868;10.730;2023-02-01T02:51:55;2.60;99.90
25983;DHT22;13773;48.868;10.730;2023-02-01T02:54:45;2.60;99.90
25983;DHT22;13773;48.868;10.730;2023-02-01T02:58:00;2.60;99.90
25983;DHT22;13773;48.868;10.730;2023-02-01T03:00:24;2.60;99.90
25983;DHT22;13773;48.868;10.730;2023-02-01T03:03:11;2.60;99.90
25983;DHT22;13773;48.868;10.730;2023-02-01T03:05:56;2.70;99.90
25983;DHT22;13773;48.868;10.730;2023-02-01T03:08:29;2.60;99.90
25983;DHT22;13773;48.868;10.730;2023-02-01T03:11:07;2.60;99.90
25983;DHT22;13773;48.868;10.730;2023-02-01T03:20:59;2.70;99.90
25983;DHT22;13773;48.868;10.730;2023-02-01T03:23:30;2.60;99.90
25983;DHT22;13773;48.868;10.730;2023-02-01T03:25:57;2.60;99.90
25983;DHT22;13773;48.868;10.730;2023-02-01T03:28:24;2.60;99.90
25983;DHT22;13773;48.868;10.730;2023-02-01T03:30:51;2.60;99.90
25983;DHT22;13773;48.868;10.730;2023-02-01T03:33:23;2.60;99.90
25983;DHT22;13773;48.868;10.730;2023-02-01T03:38:40;2.70;99.90
25983;DHT22;13773;48.868;10.730;2023-02-01T03:46:41;2.70;99.90
25983;DHT22;13773;48.868;10.730;2023-02-01T03:49:10;2.60;99.90
25983;DHT22;13773;48.868;10.730;2023-02-01T03:51:40;2.70;99.90
25983;DHT22;13773;48.868;10.730;2023-02-01T03:54:10;2.70;99.90
25983;DHT22;13773;48.868;10.730;2023-02-01T03:56:38;2.70;99.90
25983;DHT22;13773;48.868;10.730;2023-02-01T03:59:04;2.70;99.90
25983;DHT22;13773;48.868;10.730;2023-02-01T04:01:30;2.60;99.90
25983;DHT22;13773;48.868;10.730;2023-02-01T04:03:57;2.60;99.90
25983;DHT22;13773;48.868;10.730;2023-02-01T04:06:24;2.60;99.90
25983;DHT22;13773;48.868;10.730;2023-02-01T04:08:50;2.60;99.90
25983;DHT22;13773;48.868;10.730;2023-02-01T04:11:16;2.60;99.90
25983;DHT22;13773;48.868;10.730;2023-02-01T04:13:41;2.50;99.90
25983;DHT22;13773;48.868;10.730;2023-02-01T04:16:07;2.50;99.90
25983;DHT22;13773;48.868;10.730;2023-02-01T04:18:33;2.50;99.90
25983;DHT22;13773;48.868;10.730;2023-02-01T04:20:59;2.50;99.90
25983;DHT22;13773;48.868;10.730;2023-02-01T04:23:24;2.50;99.90
25983;DHT22;13773;48.868;10.730;2023-02-01T04:25:50;2.40;99.90
25983;DHT22;13773;48.868;10.730;2023-02-01T04:28:15;2.60;99.90
25983;DHT22;13773;48.868;10.730;2023-02-01T04:30:41;2.40;99.90
25983;DHT22;13773;48.868;10.730;2023-02-01T04:33:07;1.80;99.90
25983;DHT22;13773;48.868;10.730;2023-02-01T04:35:33;2.40;99.90
25983;DHT22;13773;48.868;10.730;2023-02-01T04:37:59;2.40;99.90
25983;DHT22;13773;48.868;10.730;2023-02-01T04:40:25;2.60;99.90
25983;DHT22;13773;48.868;10.730;2023-02-01T04:42:50;2.40;99.90
25983;DHT22;13773;48.868;10.730;2023-02-01T04:45:16;2.40;99.90
25983;DHT22;13773;48.868;10.730;2023-02-01T04:47:42;2.40;99.90
25983;DHT22;13773;48.868;10.730;2023-02-01T04:50:08;2.40;99.90
25983;DHT22;13773;48.868;10.730;2023-02-01T04:52:36;2.40;99.90
25983;DHT22;13773;48.868;10.730;2023-02-01T04:55:02;2.50;99.90
25983;DHT22;13773;48.868;10.730;2023-02-01T04:57:28;2.40;99.90
25983;DHT22;13773;48.868;10.730;2023-02-01T04:59:54;2.50;99.90
25983;DHT22;13773;48.868;10.730;2023-02-01T05:02:20;2.50;99.90
25983;DHT22;13773;48.868;10.730;2023-02-01T05:04:45;2.60;99.90
25983;DHT22;13773;48.868;10.730;2023-02-01T05:07:11;2.60;99.90
25983;DHT22;13773;48.868;10.730;2023-02-01T05:09:37;2.70;99.90
25983;DHT22;13773;48.868;10.730;2023-02-01T05:12:02;2.60;99.90
25983;DHT22;13773;48.868;10.730;2023-02-01T05:14:46;2.60;99.90
25983;DHT22;13773;48.868;10.730;2023-02-01T05:17:13;2.60;99.90
25983;DHT22;13773;48.868;10.730;2023-02-01T05:19:38;2.60;99.90
25983;DHT22;13773;48.868;10.730;2023-02-01T05:22:04;2.50;99.90
25983;DHT22;13773;48.868;10.730;2023-02-01T05:24:30;2.60;99.90
25983;DHT22;13773;48.868;10.730;2023-02-01T05:26:56;2.60;99.90
25983;DHT22;13773;48.868;10.730;2023-02-01T05:29:22;2.50;99.90
25983;DHT22;13773;48.868;10.730;2023-02-01T05:31:47;2.50;99.90
25983;DHT22;13773;48.868;10.730;2023-02-01T05:34:14;2.60;99.90
25983;DHT22;13773;48.868;10.730;2023-02-01T05:36:40;2.50;99.90
25983;DHT22;13773;48.868;10.730;2023-02-01T05:39:06;2.60;99.90
25983;DHT22;13773;48.868;10.730;2023-02-01T05:41:32;2.60;99.90
25983;DHT22;13773;48.868;10.730;2023-02-01T05:43:58;2.70;99.90
25983;DHT22;13773;48.868;10.730;2023-02-01T05:46:23;2.60;99.90
25983;DHT22;13773;48.868;10.730;2023-02-01T05:48:49;2.70;99.90
25983;DHT22;13773;48.868;10.730;2023-02-01T05:51:15;2.80;99.90
25983;DHT22;13773;48.868;10.730;2023-02-01T05:53:40;3.00;99.90
25983;DHT22;13773;48.868;10.730;2023-02-01T05:56:06;3.00;99.90
25983;DHT22;13773;48.868;10.730;2023-02-01T05:58:32;3.00;99.90
25983;DHT22;13773;48.868;10.730;2023-02-01T06:01:02;3.20;99.90
25983;DHT22;13773;48.868;10.730;2023-02-01T06:03:29;3.20;99.90
25983;DHT22;13773;48.868;10.730;2023-02-01T06:05:54;3.20;99.90
25983;DHT22;13773;48.868;10.730;2023-02-01T06:08:20;3.40;99.90
25983;DHT22;13773;48.868;10.730;2023-02-01T06:10:46;3.40;99.90
25983;DHT22;13773;48.868;10.730;2023-02-01T06:13:11;3.40;99.90
25983;DHT22;13773;48.868;10.730;2023-02-01T06:15:37;3.50;99.90
25983;DHT22;13773;48.868;10.730;2023-02-01T06:18:03;3.50;99.90
25983;DHT22;13773;48.868;10.730;2023-02-01T06:20:29;3.50;99.90
25983;DHT22;13773;48.868;10.730;2023-02-01T06:22:55;4.00;99.90
25983;DHT22;13773;48.868;10.730;2023-02-01T06:25:21;3.50;99.90
25983;DHT22;13773;48.868;10.730;2023-02-01T06:27:47;3.50;99.90
25983;DHT22;13773;48.868;10.730;2023-02-01T06:30:14;3.50;99.90
25983;DHT22;13773;48.868;10.730;2023-02-01T06:32:40;3.40;99.90
25983;DHT22;13773;48.868;10.730;2023-02-01T06:35:07;3.50;99.90
25983;DHT22;13773;48.868;10.730;2023-02-01T06:37:36;3.50;99.90
25983;DHT22;13773;48.868;10.730;2023-02-01T06:40:03;3.50;99.90
25983;DHT22;13773;48.868;10.730;2023-02-01T06:42:28;3.60;99.90
25983;DHT22;13773;48.868;10.730;2023-02-01T06:44:54;3.70;99.90
25983;DHT22;13773;48.868;10.730;2023-02-01T06:47:20;3.60;99.90
25983;DHT22;13773;48.868;10.730;2023-02-01T06:49:45;3.60;99.90
25983;DHT22;13773;48.868;10.730;2023-02-01T06:52:11;3.60;99.90
25983;DHT22;13773;48.868;10.730;2023-02-01T06:54:36;3.90;99.90
25983;DHT22;13773;48.868;10.730;2023-02-01T06:57:03;3.60;99.90
25983;DHT22;13773;48.868;10.730;2023-02-01T06:59:29;3.60;99.90
25983;DHT22;13773;48.868;10.730;2023-02-01T07:01:55;3.60;99.90
25983;DHT22;13773;48.868;10.730;2023-02-01T07:04:20;3.60;99.90
25983;DHT22;13773;48.868;10.730;2023-02-01T07:06:46;3.60;99.90
25983;DHT22;13773;48.868;10.730;2023-02-01T07:09:11;3.60;99.90
25983;DHT22;13773;48.868;10.730;2023-02-01T07:11:39;3.60;99.90
25983;DHT22;13773;48.868;10.730;2023-02-01T07:14:12;3.60;99.90
25983;DHT22;13773;48.868;10.730;2023-02-01T07:16:38;3.70;99.90
25983;DHT22;13773;48.868;10.730;2023-02-01T07:19:04;3.70;99.90
25983;DHT22;13773;48.868;10.730;2023-02-01T07:21:29;3.70;99.90
25983;DHT22;13773;48.868;10.730;2023-02-01T07:23:55;4.10;99.90
25983;DHT22;13773;48.868;10.730;2023-02-01T07:26:21;3.70;99.90
25983;DHT22;13773;48.868;10.730;2023-02-01T07:28:47;3.70;99.90
25983;DHT22;13773;48.868;10.730;2023-02-01T07:31:17;3.70;99.90
25983;DHT22;13773;48.868;10.730;2023-02-01T07:33:44;3.60;99.90
25983;DHT22;13773;48.868;10.730;2023-02-01T07:36:13;3.70;99.90
25983;DHT22;13773;48.868;10.730;2023-02-01T07:38:39;3.60;99.90
25983;DHT22;13773;48.868;10.730;2023-02-01T07:41:05;3.60;99.90
25983;DHT22;13773;48.868;10.730;2023-02-01T07:43:32;3.60;99.90
25983;DHT22;13773;48.868;10.730;2023-02-01T07:45:58;3.60;99.90
25983;DHT22;13773;48.868;10.730;2023-02-01T07:48:26;3.60;99.90
25983;DHT22;13773;48.868;10.730;2023-02-01T07:51:00;3.60;99.90
25983;DHT22;13773;48.868;10.730;2023-02-01T07:53:27;3.60;99.90
25983;DHT22;13773;48.868;10.730;2023-02-01T07:55:53;3.60;99.90
25983;DHT22;13773;48.868;10.730;2023-02-01T07:58:21;6.80;99.90
25983;DHT22;13773;48.868;10.730;2023-02-01T08:00:47;3.40;99.90
25983;DHT22;13773;48.868;10.730;2023-02-01T08:03:31;3.40;99.90
25983;DHT22;13773;48.868;10.730;2023-02-01T08:05:57;3.30;99.90
25983;DHT22;13773;48.868;10.730;2023-02-01T08:08:23;3.30;99.90
25983;DHT22;13773;48.868;10.730;2023-02-01T08:10:48;3.20;99.90
25983;DHT22;13773;48.868;10.730;2023-02-01T08:13:15;3.20;99.90
25983;DHT22;13773;48.868;10.730;2023-02-01T08:15:41;4.40;99.90
25983;DHT22;13773;48.868;10.730;2023-02-01T08:18:06;3.20;99.90
25983;DHT22;13773;48.868;10.730;2023-02-01T08:20:34;3.20;99.90
25983;DHT22;13773;48.868;10.730;2023-02-01T08:23:08;3.20;99.90
25983;DHT22;13773;48.868;10.730;2023-02-01T08:25:34;3.20;99.90
25983;DHT22;13773;48.868;10.730;2023-02-01T08:28:02;3.20;99.90
25983;DHT22;13773;48.868;10.730;2023-02-01T08:30:28;3.20;99.90
25983;DHT22;13773;48.868;10.730;2023-02-01T08:32:54;3.30;99.90
25983;DHT22;13773;48.868;10.730;2023-02-01T08:35:20;3.30;99.90
25983;DHT22;13773;48.868;10.730;2023-02-01T08:37:45;3.30;99.90
25983;DHT22;13773;48.868;10.730;2023-02-01T08:40:11;3.30;99.90
25983;DHT22;13773;48.868;10.730;2023-02-01T08:42:39;3.30;99.90
25983;DHT22;13773;48.868;10.730;2023-02-01T08:45:26;3.30;99.90
25983;DHT22;13773;48.868;10.730;2023-02-01T08:47:53;3.30;99.90
25983;DHT22;13773;48.868;10.730;2023-02-01T08:50:20;3.30;99.90
25983;DHT22;13773;48.868;10.730;2023-02-01T08:52:46;3.40;99.90
25983;DHT22;13773;48.868;10.730;2023-02-01T08:55:13;3.40;99.90
25983;DHT22;13773;48.868;10.730;2023-02-01T08:57:39;3.40;99.90
25983;DHT22;13773;48.868;10.730;2023-02-01T09:00:07;3.50;99.90
25983;DHT22;13773;48.868;10.730;2023-02-01T09:02:35;3.50;99.90
25983;DHT22;13773;48.868;10.730;2023-02-01T09:05:01;3.40;99.90
25983;DHT22;13773;48.868;10.730;2023-02-01T09:07:26;3.40;99.90
25983;DHT22;13773;48.868;10.730;2023-02-01T09:09:52;3.40;99.90
25983;DHT22;13773;48.868;10.730;2023-02-01T09:12:20;3.40;99.90
25983;DHT22;13773;48.868;10.730;2023-02-01T09:14:46;3.40;99.90
25983;DHT22;13773;48.868;10.730;2023-02-01T09:17:11;3.50;99.90
25983;DHT22;13773;48.868;10.730;2023-02-01T09:19:39;3.50;99.90
25983;DHT22;13773;48.868;10.730;2023-02-01T09:22:05;3.50;99.90
25983;DHT22;13773;48.868;10.730;2023-02-01T09:24:30;3.50;99.90
25983;DHT22;13773;48.868;10.730;2023-02-01T09:26:56;3.50;99.90
25983;DHT22;13773;48.868;10.730;2023-02-01T09:29:22;3.50;99.90
25983;DHT22;13773;48.868;10.730;2023-02-01T09:31:47;3.50;99.90
25983;DHT22;13773;48.868;10.730;2023-02-01T09:34:13;3.60;99.90
25983;DHT22;13773;48.868;10.730;2023-02-01T09:36:39;3.60;99.90
25983;DHT22;13773;48.868;10.730;2023-02-01T09:39:05;3.50;99.90
25983;DHT22;13773;48.868;10.730;2023-02-01T09:46:54;3.50;99.90
25983;DHT22;13773;48.868;10.730;2023-02-01T09:49:26;3.50;99.90
25983;DHT22;13773;48.868;10.730;2023-02-01T09:51:54;3.50;99.90
25983;DHT22;13773;48.868;10.730;2023-02-01T09:54:34;3.60;99.90
25983;DHT22;13773;48.868;10.730;2023-02-01T09:57:17;3.60;99.90
25983;DHT22;13773;48.868;10.730;2023-02-01T09:59:48;3.60;99.90
25983;DHT22;13773;48.868;10.730;2023-02-01T10:02:23;3.50;99.90
25983;DHT22;13773;48.868;10.730;2023-02-01T10:04:49;3.50;99.90
25983;DHT22;13773;48.868;10.730;2023-02-01T10:07:27;3.50;99.90
25983;DHT22;13773;48.868;10.730;2023-02-01T10:10:50;3.50;99.90
25983;DHT22;13773;48.868;10.730;2023-02-01T10:16:36;3.50;99.90
25983;DHT22;13773;48.868;10.730;2023-02-01T10:22:04;3.50;99.90
25983;DHT22;13773;48.868;10.730;2023-02-01T10:27:22;3.60;99.90
25983;DHT22;13773;48.868;10.730;2023-02-01T10:30:18;3.60;99.90
25983;DHT22;13773;48.868;10.730;2023-02-01T10:32:45;3.60;99.90
25983;DHT22;13773;48.868;10.730;2023-02-01T10:35:17;3.60;99.90
25983;DHT22;13773;48.868;10.730;2023-02-01T10:37:44;3.60;99.90
25983;DHT22;13773;48.868;10.730;2023-02-01T10:42:42;3.60;99.90
25983;DHT22;13773;48.868;10.730;2023-02-01T10:45:13;3.60;99.90
25983;DHT22;13773;48.868;10.730;2023-02-01T10:47:40;3.70;99.90
25983;DHT22;13773;48.868;10.730;2023-02-01T10:53:03;3.70;99.90
25983;DHT22;13773;48.868;10.730;2023-02-01T10:55:48;3.80;99.90
25983;DHT22;13773;48.868;10.730;2023-02-01T11:03:40;4.00;99.90
25983;DHT22;13773;48.868;10.730;2023-02-01T11:06:28;4.00;99.90
25983;DHT22;13773;48.868;10.730;2023-02-01T11:11:53;4.20;99.90
25983;DHT22;13773;48.868;10.730;2023-02-01T11:19:34;4.00;99.90
25983;DHT22;13773;48.868;10.730;2023-02-01T11:22:00;3.70;99.90
25983;DHT22;13773;48.868;10.730;2023-02-01T11:24:31;3.50;99.90
25983;DHT22;13773;48.868;10.730;2023-02-01T11:27:01;3.40;99.90
25983;DHT22;13773;48.868;10.730;2023-02-01T11:29:35;3.30;99.90
25983;DHT22;13773;48.868;10.730;2023-02-01T11:32:02;3.40;99.90
25983;DHT22;13773;48.868;10.730;2023-02-01T11:34:36;3.30;99.90
25983;DHT22;13773;48.868;10.730;2023-02-01T11:37:03;3.30;99.90
25983;DHT22;13773;48.868;10.730;2023-02-01T11:39:32;3.40;99.90
25983;DHT22;13773;48.868;10.730;2023-02-01T11:42:11;2.50;99.90
25983;DHT22;13773;48.868;10.730;2023-02-01T11:44:40;3.50;99.90
25983;DHT22;13773;48.868;10.730;2023-02-01T11:49:49;3.70;99.90
25983;DHT22;13773;48.868;10.730;2023-02-01T11:52:39;3.80;99.90
25983;DHT22;13773;48.868;10.730;2023-02-01T11:55:13;4.00;99.90
25983;DHT22;13773;48.868;10.730;2023-02-01T11:57:53;4.30;99.90
25983;DHT22;13773;48.868;10.730;2023-02-01T12:36:18;4.00;99.90
25983;DHT22;13773;48.868;10.730;2023-02-01T12:42:18;4.00;99.90
25983;DHT22;13773;48.868;10.730;2023-02-01T12:44:31;4.10;99.90
25983;DHT22;13773;48.868;10.730;2023-02-01T12:52:11;4.20;99.90
25983;DHT22;13773;48.868;10.730;2023-02-01T12:57:50;4.10;99.90
25983;DHT22;13773;48.868;10.730;2023-02-01T13:01:11;4.10;99.90
25983;DHT22;13773;48.868;10.730;2023-02-01T13:06:18;4.10;99.90
25983;DHT22;13773;48.868;10.730;2023-02-01T13:11:35;4.00;99.90
25983;DHT22;13773;48.868;10.730;2023-02-01T13:16:47;4.00;99.90
25983;DHT22;13773;48.868;10.730;2023-02-01T13:19:23;4.10;99.90
25983;DHT22;13773;48.868;10.730;2023-02-01T13:22:37;4.10;99.90
25983;DHT22;13773;48.868;10.730;2023-02-01T13:24:43;4.10;99.90
25983;DHT22;13773;48.868;10.730;2023-02-01T13:27:14;4.10;99.90
25983;DHT22;13773;48.868;10.730;2023-02-01T13:29:56;4.10;99.90
25983;DHT22;13773;48.868;10.730;2023-02-01T13:32:39;4.20;99.90
25983;DHT22;13773;48.868;10.730;2023-02-01T13:45:45;4.10;99.90
25983;DHT22;13773;48.868;10.730;2023-02-01T13:48:31;4.10;99.90
25983;DHT22;13773;48.868;10.730;2023-02-01T13:50:59;4.10;99.90
25983;DHT22;13773;48.868;10.730;2023-02-01T13:53:32;4.20;99.90
25983;DHT22;13773;48.868;10.730;2023-02-01T13:56:00;4.20;99.90
25983;DHT22;13773;48.868;10.730;2023-02-01T14:03:58;4.20;99.90
25983;DHT22;13773;48.868;10.730;2023-02-01T14:11:44;4.10;99.90
25983;DHT22;13773;48.868;10.730;2023-02-01T14:21:51;4.10;99.90
25983;DHT22;13773;48.868;10.730;2023-02-01T14:24:29;4.10;99.90
25983;DHT22;13773;48.868;10.730;2023-02-01T14:26:57;4.00;99.90
25983;DHT22;13773;48.868;10.730;2023-02-01T14:29:38;6.50;99.90
25983;DHT22;13773;48.868;10.730;2023-02-01T14:32:06;4.00;99.90
25983;DHT22;13773;48.868;10.730;2023-02-01T14:47:37;4.00;99.90
25983;DHT22;13773;48.868;10.730;2023-02-01T14:52:47;4.10;99.90
25983;DHT22;13773;48.868;10.730;2023-02-01T14:55:24;4.00;99.90
25983;DHT22;13773;48.868;10.730;2023-02-01T14:57:53;4.00;99.90
25983;DHT22;13773;48.868;10.730;2023-02-01T15:00:25;4.00;99.90
25983;DHT22;13773;48.868;10.730;2023-02-01T15:02:53;4.00;99.90
25983;DHT22;13773;48.868;10.730;2023-02-01T15:05:23;4.00;99.90
25983;DHT22;13773;48.868;10.730;2023-02-01T15:07:50;4.00;99.90
25983;DHT22;13773;48.868;10.730;2023-02-01T15:10:17;4.00;99.90
25983;DHT22;13773;48.868;10.730;2023-02-01T15:12:45;4.00;99.90
25983;DHT22;13773;48.868;10.730;2023-02-01T15:15:20;3.90;99.90
25983;DHT22;13773;48.868;10.730;2023-02-01T15:17:55;3.90;99.90
25983;DHT22;13773;48.868;10.730;2023-02-01T15:20:27;3.90;99.90
25983;DHT22;13773;48.868;10.730;2023-02-01T15:23:02;3.90;99.90
25983;DHT22;13773;48.868;10.730;2023-02-01T15:25:34;3.90;99.90
25983;DHT22;13773;48.868;10.730;2023-02-01T15:28:02;3.90;99.90
25983;DHT22;13773;48.868;10.730;2023-02-01T15:30:32;3.90;99.90
25983;DHT22;13773;48.868;10.730;2023-02-01T15:33:18;3.80;99.90
25983;DHT22;13773;48.868;10.730;2023-02-01T15:35:47;3.80;99.90
25983;DHT22;13773;48.868;10.730;2023-02-01T15:43:24;3.80;99.90
25983;DHT22;13773;48.868;10.730;2023-02-01T15:45:50;3.80;99.90
25983;DHT22;13773;48.868;10.730;2023-02-01T15:48:23;3.80;99.90
25983;DHT22;13773;48.868;10.730;2023-02-01T15:50:50;4.10;99.90
25983;DHT22;13773;48.868;10.730;2023-02-01T15:53:19;3.80;99.90
25983;DHT22;13773;48.868;10.730;2023-02-01T15:55:46;3.70;99.90
25983;DHT22;13773;48.868;10.730;2023-02-01T15:58:19;2.40;99.90
25983;DHT22;13773;48.868;10.730;2023-02-01T16:00:51;3.60;99.90
25983;DHT22;13773;48.868;10.730;2023-02-01T16:03:42;3.60;99.90
25983;DHT22;13773;48.868;10.730;2023-02-01T16:06:27;3.60;99.90
25983;DHT22;13773;48.868;10.730;2023-02-01T16:09:02;3.80;99.90
25983;DHT22;13773;48.868;10.730;2023-02-01T16:11:31;3.50;99.90
25983;DHT22;13773;48.868;10.730;2023-02-01T16:13:58;3.50;99.90
25983;DHT22;13773;48.868;10.730;2023-02-01T16:16:26;3.40;99.90
25983;DHT22;13773;48.868;10.730;2023-02-01T16:18:52;3.50;99.90
25983;DHT22;13773;48.868;10.730;2023-02-01T16:21:18;3.50;99.90
25983;DHT22;13773;48.868;10.730;2023-02-01T16:23:43;3.40;99.90
25983;DHT22;13773;48.868;10.730;2023-02-01T16:26:13;3.40;99.90
25983;DHT22;13773;48.868;10.730;2023-02-01T16:28:39;3.40;99.90
25983;DHT22;13773;48.868;10.730;2023-02-01T16:31:05;3.40;99.90
25983;DHT22;13773;48.868;10.730;2023-02-01T16:33:34;3.50;99.90
25983;DHT22;13773;48.868;10.730;2023-02-01T16:36:00;3.40;99.90
25983;DHT22;13773;48.868;10.730;2023-02-01T16:38:27;3.40;99.90
25983;DHT22;13773;48.868;10.730;2023-02-01T16:40:53;3.40;99.90
25983;DHT22;13773;48.868;10.730;2023-02-01T16:43:21;3.40;99.90
25983;DHT22;13773;48.868;10.730;2023-02-01T16:45:49;3.40;99.90
25983;DHT22;13773;48.868;10.730;2023-02-01T16:48:22;3.50;99.90
25983;DHT22;13773;48.868;10.730;2023-02-01T16:50:54;3.50;99.90
25983;DHT22;13773;48.868;10.730;2023-02-01T16:53:21;3.50;99.90
25983;DHT22;13773;48.868;10.730;2023-02-01T16:55:47;3.50;99.90
25983;DHT22;13773;48.868;10.730;2023-02-01T16:58:16;3.50;99.90
25983;DHT22;13773;48.868;10.730;2023-02-01T17:00:42;3.50;99.90
25983;DHT22;13773;48.868;10.730;2023-02-01T17:03:13;4.70;99.90
25983;DHT22;13773;48.868;10.730;2023-02-01T17:05:43;3.60;99.90
25983;DHT22;13773;48.868;10.730;2023-02-01T17:08:14;3.60;99.90
25983;DHT22;13773;48.868;10.730;2023-02-01T17:10:41;3.60;99.90
25983;DHT22;13773;48.868;10.730;2023-02-01T17:13:14;3.60;99.90
25983;DHT22;13773;48.868;10.730;2023-02-01T17:16:05;3.60;99.90
25983;DHT22;13773;48.868;10.730;2023-02-01T17:18:34;3.60;99.90
25983;DHT22;13773;48.868;10.730;2023-02-01T17:21:01;3.60;99.90
25983;DHT22;13773;48.868;10.730;2023-02-01T17:23:29;3.60;99.90
25983;DHT22;13773;48.868;10.730;2023-02-01T17:25:55;3.60;99.90
25983;DHT22;13773;48.868;10.730;2023-02-01T17:28:21;3.60;99.90
25983;DHT22;13773;48.868;10.730;2023-02-01T17:30:47;3.60;99.90
25983;DHT22;13773;48.868;10.730;2023-02-01T17:35:47;3.70;99.90
25983;DHT22;13773;48.868;10.730;2023-02-01T17:38:13;3.80;99.90
25983;DHT22;13773;48.868;10.730;2023-02-01T17:40:39;3.80;99.90
25983;DHT22;13773;48.868;10.730;2023-02-01T17:43:05;3.70;99.90
25983;DHT22;13773;48.868;10.730;2023-02-01T17:45:39;3.70;99.90
25983;DHT22;13773;48.868;10.730;2023-02-01T17:48:07;3.70;99.90
25983;DHT22;13773;48.868;10.730;2023-02-01T17:50:35;3.60;99.90
25983;DHT22;13773;48.868;10.730;2023-02-01T17:53:03;3.70;99.90
25983;DHT22;13773;48.868;10.730;2023-02-01T17:55:34;3.70;99.90
25983;DHT22;13773;48.868;10.730;2023-02-01T17:58:00;3.60;99.90
25983;DHT22;13773;48.868;10.730;2023-02-01T18:00:26;4.00;99.90
25983;DHT22;13773;48.868;10.730;2023-02-01T18:02:51;3.60;99.90
25983;DHT22;13773;48.868;10.730;2023-02-01T18:05:24;3.70;99.90
25983;DHT22;13773;48.868;10.730;2023-02-01T18:07:51;3.70;99.90
25983;DHT22;13773;48.868;10.730;2023-02-01T18:10:17;3.70;99.90
25983;DHT22;13773;48.868;10.730;2023-02-01T18:12:44;4.60;99.90
25983;DHT22;13773;48.868;10.730;2023-02-01T18:15:29;3.60;99.90
25983;DHT22;13773;48.868;10.730;2023-02-01T18:17:55;3.60;99.90
25983;DHT22;13773;48.868;10.730;2023-02-01T18:20:23;3.60;99.90
25983;DHT22;13773;48.868;10.730;2023-02-01T18:22:50;3.60;99.90
25983;DHT22;13773;48.868;10.730;2023-02-01T18:25:24;3.70;99.90
25983;DHT22;13773;48.868;10.730;2023-02-01T18:27:52;3.70;99.90
25983;DHT22;13773;48.868;10.730;2023-02-01T18:30:22;3.70;99.90
25983;DHT22;13773;48.868;10.730;2023-02-01T18:32:48;3.70;99.90
25983;DHT22;13773;48.868;10.730;2023-02-01T18:35:22;3.70;99.90
25983;DHT22;13773;48.868;10.730;2023-02-01T18:37:49;3.70;99.90
25983;DHT22;13773;48.868;10.730;2023-02-01T18:40:26;3.70;99.90
25983;DHT22;13773;48.868;10.730;2023-02-01T18:42:53;3.70;99.90